sensor_id;sensor_type;location;lat;lon;timestamp;P1;durP1;ratioP1;P2;durP2;ratioP2
68449;SDS011;55434;39.570;2.652;2022-12-19T00:01:17;10.85;;;3.92;;
68449;SDS011;55434;39.570;2.652;2022-12-19T00:03:52;11.02;;;3.22;;
68449;SDS011;55434;39.570;2.652;2022-12-19T00:06:29;10.93;;;3.37;;
68449;SDS011;55434;39.570;2.652;2022-12-19T00:08:56;9.77;;;3.50;;
68449;SDS011;55434;39.570;2.652;2022-12-19T00:11:24;13.73;;;3.55;;
68449;SDS011;55434;39.570;2.652;2022-12-19T00:13:51;13.43;;;3.67;;
68449;SDS011;55434;39.570;2.652;2022-12-19T00:16:20;12.97;;;3.80;;
68449;SDS011;55434;39.570;2.652;2022-12-19T00:18:48;13.40;;;4.15;;
68449;SDS011;55434;39.570;2.652;2022-12-19T00:21:15;9.90;;;3.67;;
68449;SDS011;55434;39.570;2.652;2022-12-19T00:23:42;7.88;;;2.92;;
68449;SDS011;55434;39.570;2.652;2022-12-19T00:26:10;8.80;;;2.90;;
68449;SDS011;55434;39.570;2.652;2022-12-19T00:28:39;11.48;;;3.15;;
68449;SDS011;55434;39.570;2.652;2022-12-19T00:31:06;9.00;;;2.63;;
68449;SDS011;55434;39.570;2.652;2022-12-19T00:33:32;9.68;;;2.88;;
68449;SDS011;55434;39.570;2.652;2022-12-19T00:35:59;10.70;;;3.00;;
68449;SDS011;55434;39.570;2.652;2022-12-19T00:38:26;10.93;;;3.00;;
68449;SDS011;55434;39.570;2.652;2022-12-19T00:40:52;8.68;;;2.63;;
68449;SDS011;55434;39.570;2.652;2022-12-19T00:43:18;8.20;;;2.90;;
68449;SDS011;55434;39.570;2.652;2022-12-19T00:45:44;7.07;;;2.80;;
68449;SDS011;55434;39.570;2.652;2022-12-19T00:48:10;8.63;;;3.00;;
68449;SDS011;55434;39.570;2.652;2022-12-19T00:50:36;10.30;;;2.80;;
68449;SDS011;55434;39.570;2.652;2022-12-19T00:53:02;8.47;;;2.77;;
68449;SDS011;55434;39.570;2.652;2022-12-19T00:55:28;9.53;;;2.83;;
68449;SDS011;55434;39.570;2.652;2022-12-19T00:57:53;8.25;;;2.30;;
68449;SDS011;55434;39.570;2.652;2022-12-19T01:00:19;8.47;;;2.90;;
68449;SDS011;55434;39.570;2.652;2022-12-19T01:02:45;9.23;;;2.67;;
68449;SDS011;55434;39.570;2.652;2022-12-19T01:05:12;8.77;;;2.30;;
68449;SDS011;55434;39.570;2.652;2022-12-19T01:07:37;8.35;;;2.25;;
68449;SDS011;55434;39.570;2.652;2022-12-19T01:10:03;10.50;;;2.53;;
68449;SDS011;55434;39.570;2.652;2022-12-19T01:12:29;9.63;;;2.67;;
68449;SDS011;55434;39.570;2.652;2022-12-19T01:15:11;9.52;;;2.33;;
68449;SDS011;55434;39.570;2.652;2022-12-19T01:17:37;8.18;;;2.30;;
68449;SDS011;55434;39.570;2.652;2022-12-19T01:20:03;9.30;;;2.57;;
68449;SDS011;55434;39.570;2.652;2022-12-19T01:22:29;7.70;;;2.25;;
68449;SDS011;55434;39.570;2.652;2022-12-19T01:24:55;8.60;;;2.30;;
68449;SDS011;55434;39.570;2.652;2022-12-19T01:27:20;6.90;;;2.20;;
68449;SDS011;55434;39.570;2.652;2022-12-19T01:29:46;7.67;;;2.27;;
68449;SDS011;55434;39.570;2.652;2022-12-19T01:32:12;7.60;;;2.40;;
68449;SDS011;55434;39.570;2.652;2022-12-19T01:34:37;10.00;;;2.47;;
68449;SDS011;55434;39.570;2.652;2022-12-19T01:37:03;7.93;;;2.70;;
68449;SDS011;55434;39.570;2.652;2022-12-19T01:39:29;9.70;;;2.30;;
68449;SDS011;55434;39.570;2.652;2022-12-19T01:41:54;9.33;;;2.20;;
68449;SDS011;55434;39.570;2.652;2022-12-19T01:44:22;8.23;;;2.15;;
68449;SDS011;55434;39.570;2.652;2022-12-19T01:46:50;8.55;;;2.10;;
68449;SDS011;55434;39.570;2.652;2022-12-19T01:51:49;8.85;;;2.42;;
68449;SDS011;55434;39.570;2.652;2022-12-19T01:54:21;6.77;;;1.90;;
68449;SDS011;55434;39.570;2.652;2022-12-19T01:56:51;10.48;;;2.08;;
68449;SDS011;55434;39.570;2.652;2022-12-19T01:59:21;7.55;;;1.95;;
68449;SDS011;55434;39.570;2.652;2022-12-19T02:01:56;7.38;;;1.95;;
68449;SDS011;55434;39.570;2.652;2022-12-19T02:04:34;10.30;;;2.35;;
68449;SDS011;55434;39.570;2.652;2022-12-19T02:07:02;7.00;;;1.80;;
68449;SDS011;55434;39.570;2.652;2022-12-19T02:09:29;8.65;;;1.63;;
68449;SDS011;55434;39.570;2.652;2022-12-19T02:11:55;6.30;;;1.90;;
68449;SDS011;55434;39.570;2.652;2022-12-19T02:14:23;9.60;;;1.80;;
68449;SDS011;55434;39.570;2.652;2022-12-19T02:17:02;11.20;;;2.05;;
68449;SDS011;55434;39.570;2.652;2022-12-19T02:28:19;10.20;;;2.25;;
68449;SDS011;55434;39.570;2.652;2022-12-19T02:33:42;10.68;;;2.58;;
68449;SDS011;55434;39.570;2.652;2022-12-19T02:36:31;8.43;;;2.42;;
68449;SDS011;55434;39.570;2.652;2022-12-19T02:39:16;8.37;;;2.60;;
68449;SDS011;55434;39.570;2.652;2022-12-19T02:41:49;11.45;;;2.70;;
68449;SDS011;55434;39.570;2.652;2022-12-19T02:44:19;9.82;;;2.35;;
68449;SDS011;55434;39.570;2.652;2022-12-19T02:46:48;9.27;;;2.83;;
68449;SDS011;55434;39.570;2.652;2022-12-19T02:49:15;11.75;;;2.80;;
68449;SDS011;55434;39.570;2.652;2022-12-19T02:51:40;8.63;;;2.43;;
68449;SDS011;55434;39.570;2.652;2022-12-19T02:54:06;8.27;;;2.47;;
68449;SDS011;55434;39.570;2.652;2022-12-19T03:02:05;9.52;;;2.05;;
68449;SDS011;55434;39.570;2.652;2022-12-19T03:07:20;8.67;;;1.50;;
68449;SDS011;55434;39.570;2.652;2022-12-19T03:10:02;7.68;;;1.90;;
68449;SDS011;55434;39.570;2.652;2022-12-19T03:12:52;6.68;;;1.55;;
68449;SDS011;55434;39.570;2.652;2022-12-19T03:15:23;8.35;;;1.83;;
68449;SDS011;55434;39.570;2.652;2022-12-19T03:17:50;7.22;;;1.80;;
68449;SDS011;55434;39.570;2.652;2022-12-19T03:22:56;7.78;;;1.50;;
68449;SDS011;55434;39.570;2.652;2022-12-19T03:25:22;7.65;;;1.50;;
68449;SDS011;55434;39.570;2.652;2022-12-19T03:27:49;9.20;;;1.73;;
68449;SDS011;55434;39.570;2.652;2022-12-19T03:30:17;8.70;;;1.63;;
68449;SDS011;55434;39.570;2.652;2022-12-19T03:32:44;10.27;;;1.60;;
68449;SDS011;55434;39.570;2.652;2022-12-19T03:35:19;10.02;;;2.03;;
68449;SDS011;55434;39.570;2.652;2022-12-19T03:37:48;10.68;;;1.80;;
68449;SDS011;55434;39.570;2.652;2022-12-19T03:40:19;6.87;;;1.33;;
68449;SDS011;55434;39.570;2.652;2022-12-19T03:42:47;9.07;;;1.75;;
68449;SDS011;55434;39.570;2.652;2022-12-19T03:50:54;12.73;;;1.90;;
68449;SDS011;55434;39.570;2.652;2022-12-19T03:53:35;7.23;;;1.50;;
68449;SDS011;55434;39.570;2.652;2022-12-19T03:56:26;6.35;;;1.85;;
68449;SDS011;55434;39.570;2.652;2022-12-19T03:58:59;7.85;;;1.52;;
68449;SDS011;55434;39.570;2.652;2022-12-19T04:01:29;8.50;;;1.63;;
68449;SDS011;55434;39.570;2.652;2022-12-19T04:03:58;7.65;;;1.50;;
68449;SDS011;55434;39.570;2.652;2022-12-19T04:06:26;8.40;;;1.63;;
68449;SDS011;55434;39.570;2.652;2022-12-19T04:08:54;7.53;;;1.92;;
68449;SDS011;55434;39.570;2.652;2022-12-19T04:11:22;8.27;;;1.77;;
68449;SDS011;55434;39.570;2.652;2022-12-19T04:14:02;14.63;;;1.60;;
68449;SDS011;55434;39.570;2.652;2022-12-19T04:19:11;9.67;;;1.30;;
68449;SDS011;55434;39.570;2.652;2022-12-19T04:21:45;9.38;;;1.40;;
68449;SDS011;55434;39.570;2.652;2022-12-19T04:24:27;7.32;;;1.80;;
68449;SDS011;55434;39.570;2.652;2022-12-19T04:26:57;7.97;;;2.05;;
68449;SDS011;55434;39.570;2.652;2022-12-19T04:29:25;9.93;;;1.77;;
68449;SDS011;55434;39.570;2.652;2022-12-19T04:31:53;12.37;;;2.07;;
68449;SDS011;55434;39.570;2.652;2022-12-19T04:34:19;10.05;;;2.00;;
68449;SDS011;55434;39.570;2.652;2022-12-19T04:36:45;6.25;;;1.45;;
68449;SDS011;55434;39.570;2.652;2022-12-19T04:39:12;8.23;;;1.80;;
68449;SDS011;55434;39.570;2.652;2022-12-19T04:41:38;9.07;;;2.17;;
68449;SDS011;55434;39.570;2.652;2022-12-19T04:44:03;11.13;;;1.70;;
68449;SDS011;55434;39.570;2.652;2022-12-19T04:46:29;9.27;;;1.87;;
68449;SDS011;55434;39.570;2.652;2022-12-19T04:48:55;7.72;;;1.73;;
68449;SDS011;55434;39.570;2.652;2022-12-19T04:51:20;8.43;;;1.90;;
68449;SDS011;55434;39.570;2.652;2022-12-19T04:53:47;11.88;;;2.28;;
68449;SDS011;55434;39.570;2.652;2022-12-19T04:56:12;7.37;;;1.70;;
68449;SDS011;55434;39.570;2.652;2022-12-19T04:58:38;12.30;;;1.88;;
68449;SDS011;55434;39.570;2.652;2022-12-19T05:01:04;12.17;;;1.80;;
68449;SDS011;55434;39.570;2.652;2022-12-19T05:03:32;10.32;;;2.30;;
68449;SDS011;55434;39.570;2.652;2022-12-19T05:06:05;9.52;;;2.10;;
68449;SDS011;55434;39.570;2.652;2022-12-19T05:08:32;10.85;;;2.10;;
68449;SDS011;55434;39.570;2.652;2022-12-19T05:11:00;8.50;;;2.00;;
68449;SDS011;55434;39.570;2.652;2022-12-19T05:13:26;9.30;;;2.00;;
68449;SDS011;55434;39.570;2.652;2022-12-19T05:15:56;9.48;;;1.77;;
68449;SDS011;55434;39.570;2.652;2022-12-19T05:18:22;6.88;;;2.28;;
68449;SDS011;55434;39.570;2.652;2022-12-19T05:20:49;8.57;;;1.80;;
68449;SDS011;55434;39.570;2.652;2022-12-19T05:23:14;8.93;;;2.30;;
68449;SDS011;55434;39.570;2.652;2022-12-19T05:25:40;8.30;;;2.10;;
68449;SDS011;55434;39.570;2.652;2022-12-19T05:28:05;8.23;;;2.07;;
68449;SDS011;55434;39.570;2.652;2022-12-19T05:30:31;10.43;;;2.30;;
68449;SDS011;55434;39.570;2.652;2022-12-19T05:32:57;11.43;;;2.70;;
68449;SDS011;55434;39.570;2.652;2022-12-19T05:35:22;11.40;;;2.37;;
68449;SDS011;55434;39.570;2.652;2022-12-19T05:37:48;13.45;;;2.20;;
68449;SDS011;55434;39.570;2.652;2022-12-19T05:40:17;7.47;;;2.47;;
68449;SDS011;55434;39.570;2.652;2022-12-19T05:42:42;9.90;;;2.25;;
68449;SDS011;55434;39.570;2.652;2022-12-19T05:45:08;11.00;;;2.27;;
68449;SDS011;55434;39.570;2.652;2022-12-19T05:47:34;12.45;;;2.33;;
68449;SDS011;55434;39.570;2.652;2022-12-19T05:50:01;9.60;;;2.35;;
68449;SDS011;55434;39.570;2.652;2022-12-19T05:52:27;9.00;;;2.47;;
68449;SDS011;55434;39.570;2.652;2022-12-19T05:54:52;10.57;;;2.28;;
68449;SDS011;55434;39.570;2.652;2022-12-19T05:57:18;9.87;;;2.43;;
68449;SDS011;55434;39.570;2.652;2022-12-19T05:59:44;11.15;;;2.35;;
68449;SDS011;55434;39.570;2.652;2022-12-19T06:02:09;8.10;;;2.37;;
68449;SDS011;55434;39.570;2.652;2022-12-19T06:04:35;8.63;;;2.65;;
68449;SDS011;55434;39.570;2.652;2022-12-19T06:07:00;10.50;;;2.30;;
68449;SDS011;55434;39.570;2.652;2022-12-19T06:09:26;10.33;;;2.60;;
68449;SDS011;55434;39.570;2.652;2022-12-19T06:11:51;10.20;;;2.40;;
68449;SDS011;55434;39.570;2.652;2022-12-19T06:14:17;9.93;;;2.33;;
68449;SDS011;55434;39.570;2.652;2022-12-19T06:16:43;12.30;;;2.90;;
68449;SDS011;55434;39.570;2.652;2022-12-19T06:19:08;14.37;;;2.90;;
68449;SDS011;55434;39.570;2.652;2022-12-19T06:21:34;10.32;;;2.88;;
68449;SDS011;55434;39.570;2.652;2022-12-19T06:24:00;8.87;;;2.50;;
68449;SDS011;55434;39.570;2.652;2022-12-19T06:26:27;9.87;;;3.00;;
68449;SDS011;55434;39.570;2.652;2022-12-19T06:28:53;13.45;;;3.20;;
68449;SDS011;55434;39.570;2.652;2022-12-19T06:31:20;11.80;;;3.20;;
68449;SDS011;55434;39.570;2.652;2022-12-19T06:33:47;13.43;;;3.50;;
68449;SDS011;55434;39.570;2.652;2022-12-19T06:36:14;14.13;;;3.20;;
68449;SDS011;55434;39.570;2.652;2022-12-19T06:38:43;13.57;;;3.03;;
68449;SDS011;55434;39.570;2.652;2022-12-19T06:41:09;15.57;;;2.90;;
68449;SDS011;55434;39.570;2.652;2022-12-19T06:44:00;11.07;;;3.65;;
68449;SDS011;55434;39.570;2.652;2022-12-19T06:46:29;11.63;;;3.63;;
68449;SDS011;55434;39.570;2.652;2022-12-19T06:48:55;15.02;;;3.63;;
68449;SDS011;55434;39.570;2.652;2022-12-19T06:51:21;14.07;;;3.40;;
68449;SDS011;55434;39.570;2.652;2022-12-19T06:53:47;17.52;;;3.78;;
68449;SDS011;55434;39.570;2.652;2022-12-19T06:56:13;16.07;;;3.53;;
68449;SDS011;55434;39.570;2.652;2022-12-19T06:58:40;12.73;;;3.13;;
68449;SDS011;55434;39.570;2.652;2022-12-19T07:01:06;16.10;;;3.80;;
68449;SDS011;55434;39.570;2.652;2022-12-19T07:03:36;10.77;;;3.38;;
68449;SDS011;55434;39.570;2.652;2022-12-19T07:06:05;14.60;;;3.90;;
68449;SDS011;55434;39.570;2.652;2022-12-19T07:08:31;10.43;;;3.60;;
68449;SDS011;55434;39.570;2.652;2022-12-19T07:10:57;10.85;;;3.15;;
68449;SDS011;55434;39.570;2.652;2022-12-19T07:13:24;19.15;;;3.53;;
68449;SDS011;55434;39.570;2.652;2022-12-19T07:15:51;17.15;;;3.78;;
68449;SDS011;55434;39.570;2.652;2022-12-19T07:18:19;11.83;;;3.73;;
68449;SDS011;55434;39.570;2.652;2022-12-19T07:20:44;10.52;;;3.60;;
68449;SDS011;55434;39.570;2.652;2022-12-19T07:23:12;14.67;;;3.73;;
68449;SDS011;55434;39.570;2.652;2022-12-19T07:25:41;14.65;;;4.40;;
68449;SDS011;55434;39.570;2.652;2022-12-19T07:28:07;16.23;;;4.20;;
68449;SDS011;55434;39.570;2.652;2022-12-19T07:30:33;13.90;;;4.30;;
68449;SDS011;55434;39.570;2.652;2022-12-19T07:32:59;15.23;;;3.60;;
68449;SDS011;55434;39.570;2.652;2022-12-19T07:35:25;16.95;;;4.72;;
68449;SDS011;55434;39.570;2.652;2022-12-19T07:37:50;14.20;;;3.83;;
68449;SDS011;55434;39.570;2.652;2022-12-19T07:40:16;19.20;;;4.28;;
68449;SDS011;55434;39.570;2.652;2022-12-19T07:42:42;18.50;;;4.27;;
68449;SDS011;55434;39.570;2.652;2022-12-19T07:45:09;18.92;;;5.10;;
68449;SDS011;55434;39.570;2.652;2022-12-19T07:47:35;18.35;;;5.03;;
68449;SDS011;55434;39.570;2.652;2022-12-19T07:50:01;15.33;;;4.87;;
68449;SDS011;55434;39.570;2.652;2022-12-19T07:52:26;25.27;;;5.68;;
68449;SDS011;55434;39.570;2.652;2022-12-19T07:54:52;14.82;;;4.40;;
68449;SDS011;55434;39.570;2.652;2022-12-19T07:57:18;15.97;;;4.57;;
68449;SDS011;55434;39.570;2.652;2022-12-19T07:59:44;11.68;;;3.60;;
68449;SDS011;55434;39.570;2.652;2022-12-19T08:02:11;14.48;;;4.35;;
68449;SDS011;55434;39.570;2.652;2022-12-19T08:04:37;14.18;;;4.13;;
68449;SDS011;55434;39.570;2.652;2022-12-19T08:07:03;15.47;;;5.17;;
68449;SDS011;55434;39.570;2.652;2022-12-19T08:09:29;16.80;;;5.15;;
68449;SDS011;55434;39.570;2.652;2022-12-19T08:11:55;16.43;;;4.97;;
68449;SDS011;55434;39.570;2.652;2022-12-19T08:14:22;16.63;;;4.25;;
68449;SDS011;55434;39.570;2.652;2022-12-19T08:16:48;13.43;;;4.65;;
68449;SDS011;55434;39.570;2.652;2022-12-19T08:19:17;14.32;;;4.22;;
68449;SDS011;55434;39.570;2.652;2022-12-19T08:21:43;14.40;;;4.10;;
68449;SDS011;55434;39.570;2.652;2022-12-19T08:24:08;16.98;;;4.70;;
68449;SDS011;55434;39.570;2.652;2022-12-19T08:26:34;16.60;;;4.60;;
68449;SDS011;55434;39.570;2.652;2022-12-19T08:29:00;13.70;;;3.83;;
68449;SDS011;55434;39.570;2.652;2022-12-19T08:31:28;20.67;;;4.13;;
68449;SDS011;55434;39.570;2.652;2022-12-19T08:33:55;21.15;;;5.40;;
68449;SDS011;55434;39.570;2.652;2022-12-19T08:36:21;19.52;;;4.72;;
68449;SDS011;55434;39.570;2.652;2022-12-19T08:38:49;27.07;;;5.30;;
68449;SDS011;55434;39.570;2.652;2022-12-19T08:41:15;19.48;;;5.40;;
68449;SDS011;55434;39.570;2.652;2022-12-19T08:43:42;19.33;;;5.07;;
68449;SDS011;55434;39.570;2.652;2022-12-19T08:46:12;27.55;;;4.95;;
68449;SDS011;55434;39.570;2.652;2022-12-19T08:48:38;20.10;;;6.63;;
68449;SDS011;55434;39.570;2.652;2022-12-19T08:51:07;31.77;;;7.18;;
68449;SDS011;55434;39.570;2.652;2022-12-19T08:53:34;26.97;;;7.30;;
68449;SDS011;55434;39.570;2.652;2022-12-19T08:56:04;24.52;;;6.00;;
68449;SDS011;55434;39.570;2.652;2022-12-19T08:58:34;25.13;;;5.60;;
68449;SDS011;55434;39.570;2.652;2022-12-19T09:01:01;18.52;;;4.80;;
68449;SDS011;55434;39.570;2.652;2022-12-19T09:03:35;19.70;;;5.40;;
68449;SDS011;55434;39.570;2.652;2022-12-19T09:06:03;17.48;;;5.50;;
68449;SDS011;55434;39.570;2.652;2022-12-19T09:08:30;17.80;;;5.25;;
68449;SDS011;55434;39.570;2.652;2022-12-19T09:11:00;17.67;;;5.60;;
68449;SDS011;55434;39.570;2.652;2022-12-19T09:13:28;14.32;;;5.97;;
68449;SDS011;55434;39.570;2.652;2022-12-19T09:16:01;15.90;;;5.97;;
68449;SDS011;55434;39.570;2.652;2022-12-19T09:18:30;16.25;;;6.45;;
68449;SDS011;55434;39.570;2.652;2022-12-19T09:20:58;21.33;;;6.40;;
68449;SDS011;55434;39.570;2.652;2022-12-19T09:23:24;17.85;;;6.85;;
68449;SDS011;55434;39.570;2.652;2022-12-19T09:25:53;16.70;;;6.47;;
68449;SDS011;55434;39.570;2.652;2022-12-19T09:28:20;18.20;;;7.37;;
68449;SDS011;55434;39.570;2.652;2022-12-19T09:30:56;19.25;;;6.55;;
68449;SDS011;55434;39.570;2.652;2022-12-19T09:33:23;17.02;;;6.50;;
68449;SDS011;55434;39.570;2.652;2022-12-19T09:35:50;14.43;;;7.15;;
68449;SDS011;55434;39.570;2.652;2022-12-19T09:38:17;17.27;;;7.00;;
68449;SDS011;55434;39.570;2.652;2022-12-19T09:40:49;17.93;;;6.20;;
68449;SDS011;55434;39.570;2.652;2022-12-19T09:43:32;15.80;;;5.97;;
68449;SDS011;55434;39.570;2.652;2022-12-19T09:46:09;15.80;;;6.25;;
68449;SDS011;55434;39.570;2.652;2022-12-19T09:48:53;16.35;;;6.63;;
68449;SDS011;55434;39.570;2.652;2022-12-19T09:54:34;14.73;;;5.37;;
68449;SDS011;55434;39.570;2.652;2022-12-19T09:57:04;14.20;;;5.70;;
68449;SDS011;55434;39.570;2.652;2022-12-19T09:59:45;16.55;;;5.88;;
68449;SDS011;55434;39.570;2.652;2022-12-19T10:08:11;17.47;;;6.20;;
68449;SDS011;55434;39.570;2.652;2022-12-19T10:15:51;15.55;;;5.35;;
68449;SDS011;55434;39.570;2.652;2022-12-19T10:35:43;9.63;;;2.67;;
68449;SDS011;55434;39.570;2.652;2022-12-19T10:38:15;16.10;;;3.10;;
68449;SDS011;55434;39.570;2.652;2022-12-19T10:44:21;12.10;;;2.63;;
68449;SDS011;55434;39.570;2.652;2022-12-19T10:46:41;12.52;;;3.30;;
68449;SDS011;55434;39.570;2.652;2022-12-19T10:49:19;13.05;;;2.95;;
68449;SDS011;55434;39.570;2.652;2022-12-19T10:54:25;13.23;;;2.95;;
68449;SDS011;55434;39.570;2.652;2022-12-19T10:57:23;9.65;;;2.80;;
68449;SDS011;55434;39.570;2.652;2022-12-19T10:59:54;9.30;;;2.40;;
68449;SDS011;55434;39.570;2.652;2022-12-19T11:05:25;10.48;;;1.83;;
68449;SDS011;55434;39.570;2.652;2022-12-19T11:08:02;11.77;;;2.03;;
68449;SDS011;55434;39.570;2.652;2022-12-19T11:10:52;15.18;;;1.98;;
68449;SDS011;55434;39.570;2.652;2022-12-19T11:16:03;8.18;;;1.40;;
68449;SDS011;55434;39.570;2.652;2022-12-19T11:26:25;10.60;;;2.00;;
68449;SDS011;55434;39.570;2.652;2022-12-19T11:29:34;11.02;;;2.20;;
68449;SDS011;55434;39.570;2.652;2022-12-19T11:32:24;9.93;;;2.80;;
68449;SDS011;55434;39.570;2.652;2022-12-19T11:35:00;21.90;;;2.80;;
68449;SDS011;55434;39.570;2.652;2022-12-19T11:37:40;8.40;;;2.00;;
68449;SDS011;55434;39.570;2.652;2022-12-19T11:40:32;14.27;;;2.03;;
68449;SDS011;55434;39.570;2.652;2022-12-19T11:43:32;9.90;;;2.30;;
68449;SDS011;55434;39.570;2.652;2022-12-19T19:26:04;25.97;;;10.77;;
68449;SDS011;55434;39.570;2.652;2022-12-19T19:28:30;27.63;;;11.57;;
68449;SDS011;55434;39.570;2.652;2022-12-19T19:30:56;30.40;;;12.32;;
68449;SDS011;55434;39.570;2.652;2022-12-19T19:33:25;23.73;;;10.70;;
68449;SDS011;55434;39.570;2.652;2022-12-19T19:35:55;25.17;;;11.07;;
68449;SDS011;55434;39.570;2.652;2022-12-19T19:38:24;31.38;;;12.20;;
68449;SDS011;55434;39.570;2.652;2022-12-19T19:40:49;27.88;;;12.73;;
68449;SDS011;55434;39.570;2.652;2022-12-19T19:43:15;31.10;;;12.17;;
68449;SDS011;55434;39.570;2.652;2022-12-19T19:45:41;28.70;;;11.82;;
68449;SDS011;55434;39.570;2.652;2022-12-19T19:48:07;23.23;;;10.57;;
68449;SDS011;55434;39.570;2.652;2022-12-19T19:50:33;25.97;;;11.67;;
68449;SDS011;55434;39.570;2.652;2022-12-19T19:53:00;24.70;;;10.65;;
68449;SDS011;55434;39.570;2.652;2022-12-19T19:55:26;23.73;;;10.85;;
68449;SDS011;55434;39.570;2.652;2022-12-19T19:57:52;23.70;;;11.20;;
68449;SDS011;55434;39.570;2.652;2022-12-19T20:00:19;25.85;;;12.52;;
68449;SDS011;55434;39.570;2.652;2022-12-19T20:02:46;24.50;;;11.80;;
68449;SDS011;55434;39.570;2.652;2022-12-19T20:05:11;24.13;;;11.07;;
68449;SDS011;55434;39.570;2.652;2022-12-19T20:07:37;26.47;;;11.60;;
68449;SDS011;55434;39.570;2.652;2022-12-19T20:10:03;29.10;;;11.40;;
68449;SDS011;55434;39.570;2.652;2022-12-19T20:12:30;22.80;;;11.07;;
68449;SDS011;55434;39.570;2.652;2022-12-19T20:14:55;28.47;;;12.40;;
68449;SDS011;55434;39.570;2.652;2022-12-19T20:17:21;26.30;;;12.07;;
68449;SDS011;55434;39.570;2.652;2022-12-19T20:19:48;23.92;;;10.77;;
68449;SDS011;55434;39.570;2.652;2022-12-19T20:22:14;24.17;;;11.37;;
68449;SDS011;55434;39.570;2.652;2022-12-19T20:24:39;25.38;;;12.40;;
68449;SDS011;55434;39.570;2.652;2022-12-19T20:27:05;23.90;;;11.67;;
68449;SDS011;55434;39.570;2.652;2022-12-19T20:29:31;24.67;;;11.00;;
68449;SDS011;55434;39.570;2.652;2022-12-19T20:31:57;21.15;;;10.00;;
68449;SDS011;55434;39.570;2.652;2022-12-19T20:34:23;22.37;;;10.20;;
68449;SDS011;55434;39.570;2.652;2022-12-19T20:36:50;22.83;;;10.63;;
68449;SDS011;55434;39.570;2.652;2022-12-19T20:39:16;24.73;;;9.82;;
68449;SDS011;55434;39.570;2.652;2022-12-19T20:41:47;20.33;;;10.07;;
68449;SDS011;55434;39.570;2.652;2022-12-19T20:44:17;18.97;;;9.80;;
68449;SDS011;55434;39.570;2.652;2022-12-19T20:46:44;20.83;;;9.07;;
68449;SDS011;55434;39.570;2.652;2022-12-19T20:49:10;20.42;;;9.68;;
68449;SDS011;55434;39.570;2.652;2022-12-19T20:51:37;20.25;;;9.25;;
68449;SDS011;55434;39.570;2.652;2022-12-19T20:54:03;21.30;;;9.82;;
68449;SDS011;55434;39.570;2.652;2022-12-19T20:56:30;22.57;;;10.40;;
68449;SDS011;55434;39.570;2.652;2022-12-19T20:58:56;20.88;;;8.85;;
68449;SDS011;55434;39.570;2.652;2022-12-19T21:01:22;16.23;;;8.23;;
68449;SDS011;55434;39.570;2.652;2022-12-19T21:03:49;21.90;;;9.13;;
68449;SDS011;55434;39.570;2.652;2022-12-19T21:06:16;18.00;;;7.75;;
68449;SDS011;55434;39.570;2.652;2022-12-19T21:08:43;21.42;;;8.45;;
68449;SDS011;55434;39.570;2.652;2022-12-19T21:11:10;19.65;;;8.57;;
68449;SDS011;55434;39.570;2.652;2022-12-19T21:13:36;19.88;;;8.60;;
68449;SDS011;55434;39.570;2.652;2022-12-19T21:16:03;22.43;;;8.70;;
68449;SDS011;55434;39.570;2.652;2022-12-19T21:18:31;18.92;;;8.63;;
68449;SDS011;55434;39.570;2.652;2022-12-19T21:20:57;22.58;;;8.82;;
68449;SDS011;55434;39.570;2.652;2022-12-19T21:23:23;17.95;;;8.85;;
68449;SDS011;55434;39.570;2.652;2022-12-19T21:25:51;15.77;;;7.77;;
68449;SDS011;55434;39.570;2.652;2022-12-19T21:28:20;22.92;;;7.50;;
68449;SDS011;55434;39.570;2.652;2022-12-19T21:30:53;20.55;;;8.43;;
68449;SDS011;55434;39.570;2.652;2022-12-19T21:33:23;17.23;;;7.23;;
68449;SDS011;55434;39.570;2.652;2022-12-19T21:35:49;15.32;;;7.07;;
68449;SDS011;55434;39.570;2.652;2022-12-19T21:38:15;18.70;;;6.95;;
68449;SDS011;55434;39.570;2.652;2022-12-19T21:40:41;14.27;;;6.50;;
68449;SDS011;55434;39.570;2.652;2022-12-19T21:43:06;18.77;;;7.20;;
68449;SDS011;55434;39.570;2.652;2022-12-19T21:45:32;16.97;;;6.83;;
68449;SDS011;55434;39.570;2.652;2022-12-19T21:47:58;15.57;;;6.15;;
68449;SDS011;55434;39.570;2.652;2022-12-19T21:50:23;13.20;;;6.27;;
68449;SDS011;55434;39.570;2.652;2022-12-19T21:52:49;14.82;;;6.57;;
68449;SDS011;55434;39.570;2.652;2022-12-19T21:55:16;16.43;;;6.37;;
68449;SDS011;55434;39.570;2.652;2022-12-19T21:57:42;19.05;;;6.75;;
68449;SDS011;55434;39.570;2.652;2022-12-19T22:00:09;14.57;;;6.63;;
68449;SDS011;55434;39.570;2.652;2022-12-19T22:02:37;15.55;;;6.88;;
68449;SDS011;55434;39.570;2.652;2022-12-19T22:05:03;17.87;;;6.83;;
68449;SDS011;55434;39.570;2.652;2022-12-19T22:07:30;15.95;;;5.95;;
68449;SDS011;55434;39.570;2.652;2022-12-19T22:09:55;15.90;;;7.50;;
68449;SDS011;55434;39.570;2.652;2022-12-19T22:12:21;15.80;;;6.83;;
68449;SDS011;55434;39.570;2.652;2022-12-19T22:14:47;17.85;;;6.90;;
68449;SDS011;55434;39.570;2.652;2022-12-19T22:17:13;18.30;;;7.00;;
68449;SDS011;55434;39.570;2.652;2022-12-19T22:19:39;17.73;;;6.50;;
68449;SDS011;55434;39.570;2.652;2022-12-19T22:22:05;15.63;;;6.38;;
68449;SDS011;55434;39.570;2.652;2022-12-19T22:24:31;15.10;;;7.00;;
68449;SDS011;55434;39.570;2.652;2022-12-19T22:26:57;17.93;;;6.97;;
68449;SDS011;55434;39.570;2.652;2022-12-19T22:29:22;13.63;;;5.93;;
68449;SDS011;55434;39.570;2.652;2022-12-19T22:31:48;15.35;;;6.80;;
68449;SDS011;55434;39.570;2.652;2022-12-19T22:34:15;14.87;;;6.27;;
68449;SDS011;55434;39.570;2.652;2022-12-19T22:36:43;14.77;;;6.22;;
68449;SDS011;55434;39.570;2.652;2022-12-19T22:39:11;11.65;;;5.97;;
68449;SDS011;55434;39.570;2.652;2022-12-19T22:41:39;14.05;;;5.60;;
68449;SDS011;55434;39.570;2.652;2022-12-19T22:44:06;14.93;;;5.20;;
68449;SDS011;55434;39.570;2.652;2022-12-19T22:46:37;13.18;;;5.65;;
68449;SDS011;55434;39.570;2.652;2022-12-19T22:49:09;13.45;;;5.25;;
68449;SDS011;55434;39.570;2.652;2022-12-19T22:51:58;12.95;;;5.20;;
68449;SDS011;55434;39.570;2.652;2022-12-19T22:54:24;13.37;;;5.60;;
68449;SDS011;55434;39.570;2.652;2022-12-19T22:56:51;13.57;;;6.03;;
68449;SDS011;55434;39.570;2.652;2022-12-19T22:59:16;15.15;;;6.80;;
68449;SDS011;55434;39.570;2.652;2022-12-19T23:01:42;16.57;;;6.60;;
68449;SDS011;55434;39.570;2.652;2022-12-19T23:04:09;14.57;;;6.75;;
68449;SDS011;55434;39.570;2.652;2022-12-19T23:06:41;12.85;;;6.68;;
68449;SDS011;55434;39.570;2.652;2022-12-19T23:09:08;15.07;;;6.53;;
68449;SDS011;55434;39.570;2.652;2022-12-19T23:11:37;16.08;;;6.97;;
68449;SDS011;55434;39.570;2.652;2022-12-19T23:14:05;16.73;;;6.13;;
68449;SDS011;55434;39.570;2.652;2022-12-19T23:16:32;13.13;;;6.20;;
68449;SDS011;55434;39.570;2.652;2022-12-19T23:18:57;16.07;;;5.93;;
68449;SDS011;55434;39.570;2.652;2022-12-19T23:21:25;11.02;;;5.00;;
68449;SDS011;55434;39.570;2.652;2022-12-19T23:23:51;14.98;;;5.20;;
68449;SDS011;55434;39.570;2.652;2022-12-19T23:26:23;12.60;;;5.03;;
68449;SDS011;55434;39.570;2.652;2022-12-19T23:29:01;14.00;;;5.43;;
68449;SDS011;55434;39.570;2.652;2022-12-19T23:31:28;17.80;;;5.80;;
68449;SDS011;55434;39.570;2.652;2022-12-19T23:33:55;13.05;;;5.13;;
68449;SDS011;55434;39.570;2.652;2022-12-19T23:36:21;13.52;;;4.72;;
68449;SDS011;55434;39.570;2.652;2022-12-19T23:38:47;14.57;;;5.00;;
68449;SDS011;55434;39.570;2.652;2022-12-19T23:41:16;11.88;;;4.57;;
68449;SDS011;55434;39.570;2.652;2022-12-19T23:43:42;13.38;;;5.00;;
68449;SDS011;55434;39.570;2.652;2022-12-19T23:46:09;11.30;;;4.43;;
68449;SDS011;55434;39.570;2.652;2022-12-19T23:48:38;14.13;;;5.00;;
68449;SDS011;55434;39.570;2.652;2022-12-19T23:51:06;11.07;;;4.97;;